createdAt,value
2023-06-02T00:02:30.947Z,90.70
2023-06-02T00:05:34.270Z,90.61
2023-06-02T00:08:39.456Z,90.42
2023-06-02T00:11:41.685Z,90.61
2023-06-02T00:14:43.894Z,90.87
2023-06-02T00:17:47.587Z,90.73
2023-06-02T00:20:49.764Z,90.45
2023-06-02T00:23:51.860Z,90.61
2023-06-02T00:26:53.802Z,90.64
2023-06-02T00:29:56.162Z,90.49
2023-06-02T00:32:59.862Z,90.52
2023-06-02T00:36:01.670Z,90.75
2023-06-02T00:39:04.070Z,90.69
2023-06-02T00:42:06.562Z,90.75
2023-06-02T00:45:09.690Z,90.78
2023-06-02T00:48:13.497Z,90.89
2023-06-02T00:51:16.465Z,90.88
2023-06-02T00:54:18.882Z,90.85
2023-06-02T00:57:22.306Z,90.72
2023-06-02T01:00:27.921Z,90.86
2023-06-02T01:03:32.601Z,90.64
2023-06-02T01:06:36.023Z,90.61
2023-06-02T01:09:38.040Z,90.03
2023-06-02T01:12:40.587Z,90.06
2023-06-02T01:15:46.177Z,89.53
2023-06-02T01:18:54.217Z,89.56
2023-06-02T01:22:01.200Z,89.50
2023-06-02T01:25:17.076Z,89.36
2023-06-02T01:28:19.294Z,89.54
2023-06-02T01:31:23.612Z,89.53
2023-06-02T01:34:29.941Z,89.65
2023-06-02T01:37:37.085Z,89.56
2023-06-02T01:40:41.410Z,89.51
2023-06-02T01:43:43.758Z,89.52
2023-06-02T01:46:46.815Z,89.65
2023-06-02T01:49:50.179Z,89.65
2023-06-02T01:52:52.578Z,89.53
2023-06-02T01:55:56.487Z,89.72
2023-06-02T01:58:59.687Z,89.63
2023-06-02T02:02:01.738Z,89.63
2023-06-02T02:05:04.570Z,89.80
2023-06-02T02:08:06.969Z,89.89
2023-06-02T02:11:10.558Z,89.59
2023-06-02T02:14:14.689Z,89.52
2023-06-02T02:17:17.584Z,89.37
2023-06-02T02:20:21.131Z,89.12
2023-06-02T02:23:23.188Z,89.32
2023-06-02T02:26:27.622Z,89.11
2023-06-02T02:29:29.687Z,89.27
2023-06-02T02:32:31.893Z,89.29
2023-06-02T02:35:34.313Z,89.26
2023-06-02T02:38:37.112Z,89.15
2023-06-02T02:41:40.671Z,89.34
2023-06-02T02:44:42.981Z,89.51
2023-06-02T02:47:45.742Z,89.62
2023-06-02T02:50:48.346Z,89.77
2023-06-02T02:53:50.442Z,89.53
2023-06-02T02:56:54.939Z,89.25
2023-06-02T02:59:57.415Z,89.93
2023-06-02T03:03:02.631Z,89.80
2023-06-02T03:06:05.029Z,89.82
2023-06-02T03:09:07.911Z,89.77
2023-06-02T03:12:13.487Z,90.14
2023-06-02T03:15:16.365Z,89.52
2023-06-02T03:18:19.571Z,89.79
2023-06-02T03:21:23.550Z,89.59
2023-06-02T03:24:25.991Z,89.63
2023-06-02T03:27:31.753Z,90.00
2023-06-02T03:30:34.674Z,90.00
2023-06-02T03:33:37.975Z,89.68
2023-06-02T03:36:40.945Z,89.96
2023-06-02T03:39:44.340Z,90.17
2023-06-02T03:42:47.911Z,90.52
2023-06-02T03:45:50.661Z,90.47
2023-06-02T03:48:53.159Z,90.41
2023-06-02T03:51:55.537Z,90.44
2023-06-02T03:54:57.890Z,90.51
2023-06-02T03:58:01.646Z,90.64
2023-06-02T04:01:06.104Z,90.76
2023-06-02T04:04:13.529Z,90.38
2023-06-02T04:07:16.336Z,90.70
2023-06-02T04:10:19.543Z,90.84
2023-06-02T04:13:23.323Z,90.45
2023-06-02T04:16:25.553Z,90.42
2023-06-02T04:19:27.661Z,90.26
2023-06-02T04:22:30.995Z,90.86
2023-06-02T04:25:33.700Z,90.55
2023-06-02T04:28:37.554Z,90.72
2023-06-02T04:31:40.849Z,90.50
2023-06-02T04:34:44.683Z,90.38
2023-06-02T04:37:47.435Z,90.31
2023-06-02T04:40:52.221Z,90.75
2023-06-02T04:43:57.933Z,90.90
2023-06-02T04:47:00.054Z,90.66
2023-06-02T04:50:02.375Z,90.71
2023-06-02T04:53:06.289Z,90.47
2023-06-02T04:56:08.348Z,90.47
2023-06-02T04:59:13.199Z,90.63
2023-06-02T05:02:16.516Z,90.66
2023-06-02T05:05:18.564Z,91.22
2023-06-02T05:08:21.654Z,90.34
2023-06-02T05:11:25.711Z,90.59
2023-06-02T05:14:30.160Z,90.56
2023-06-02T05:17:32.757Z,90.32
2023-06-02T05:20:37.353Z,91.19
2023-06-02T05:23:40.731Z,90.59
2023-06-02T05:26:43.549Z,90.89
2023-06-02T05:29:47.414Z,90.95
2023-06-02T05:32:50.597Z,92.00
2023-06-02T05:35:53.292Z,91.86
2023-06-02T05:38:56.277Z,91.96
2023-06-02T05:41:58.982Z,92.17
2023-06-02T05:45:06.827Z,92.18
2023-06-02T05:48:10.861Z,92.67
2023-06-02T05:51:15.861Z,92.98
2023-06-02T05:54:21.226Z,92.44
2023-06-02T05:57:23.345Z,92.04
2023-06-02T06:00:27.322Z,92.97
2023-06-02T06:03:29.515Z,92.64
2023-06-02T06:06:31.756Z,92.45
2023-06-02T06:09:33.904Z,91.97
2023-06-02T06:12:38.364Z,92.44
2023-06-02T06:15:41.838Z,92.95
2023-06-02T06:18:46.041Z,93.92
2023-06-02T06:21:48.327Z,92.86
2023-06-02T06:24:50.566Z,93.22
2023-06-02T06:27:53.050Z,92.50
2023-06-02T06:30:57.807Z,93.17
2023-06-02T06:34:00.655Z,94.06
2023-06-02T06:37:02.844Z,93.71
2023-06-02T06:40:05.120Z,92.84
2023-06-02T06:43:23.058Z,92.45
2023-06-02T06:46:37.167Z,93.20
2023-06-02T06:49:40.824Z,92.20
2023-06-02T06:52:43.259Z,92.56
2023-06-02T06:55:45.716Z,93.68
2023-06-02T06:58:47.704Z,93.47
2023-06-02T07:01:51.485Z,93.71
2023-06-02T07:04:53.772Z,93.84
2023-06-02T07:07:58.017Z,94.54
2023-06-02T07:11:00.141Z,94.76
2023-06-02T07:14:14.670Z,94.34
2023-06-02T07:17:20.006Z,95.02
2023-06-02T07:20:22.266Z,94.20
2023-06-02T07:23:25.181Z,94.15
2023-06-02T07:26:27.463Z,93.17
2023-06-02T07:29:29.769Z,93.99
2023-06-02T07:32:33.304Z,94.43
2023-06-02T07:35:38.868Z,95.15
2023-06-02T07:38:41.329Z,96.37
2023-06-02T07:41:43.817Z,94.34
2023-06-02T07:44:46.159Z,94.65
2023-06-02T07:47:49.949Z,94.31
2023-06-02T07:50:52.673Z,95.70
2023-06-02T07:53:55.104Z,95.21
2023-06-02T07:56:59.622Z,95.40
2023-06-02T08:00:09.983Z,96.81
2023-06-02T08:03:15.551Z,97.31
2023-06-02T08:06:21.082Z,95.09
2023-06-02T08:09:23.926Z,93.96
2023-06-02T08:12:26.881Z,94.61
2023-06-02T08:15:29.061Z,94.63
2023-06-02T08:18:32.730Z,95.48
2023-06-02T08:21:38.687Z,95.39
2023-06-02T08:24:40.814Z,96.03
2023-06-02T08:27:47.492Z,95.09
2023-06-02T08:30:49.792Z,93.22
2023-06-02T08:33:58.375Z,93.74
2023-06-02T08:37:02.205Z,92.43
2023-06-02T08:40:06.988Z,92.89
2023-06-02T08:43:14.772Z,92.34
2023-06-02T08:46:17.363Z,92.37
2023-06-02T08:49:23.191Z,92.34
2023-06-02T08:52:28.390Z,93.46
2023-06-02T08:55:30.927Z,91.73
2023-06-02T08:58:34.310Z,91.79
2023-06-02T09:01:36.516Z,92.90
2023-06-02T09:04:40.260Z,91.79
2023-06-02T09:07:42.360Z,91.91
2023-06-02T09:10:46.767Z,91.68
2023-06-02T09:13:48.963Z,92.90
2023-06-02T09:16:52.088Z,91.26
2023-06-02T09:19:56.442Z,91.58
2023-06-02T09:22:59.277Z,91.80
2023-06-02T09:26:06.139Z,92.21
2023-06-02T09:29:13.754Z,91.79
2023-06-02T09:32:16.521Z,91.15
2023-06-02T09:35:37.138Z,91.73
2023-06-02T09:38:44.765Z,92.44
2023-06-02T09:41:47.590Z,92.03
2023-06-02T09:45:12.142Z,92.17
2023-06-02T09:48:18.295Z,92.49
2023-06-02T09:51:24.177Z,91.06
2023-06-02T09:54:27.772Z,90.86
2023-06-02T09:57:31.781Z,90.98
2023-06-02T10:00:35.786Z,90.48
2023-06-02T10:03:37.786Z,90.04
2023-06-02T10:06:46.141Z,89.85
2023-06-02T10:09:57.667Z,89.33
2023-06-02T10:13:13.608Z,88.40
2023-06-02T10:16:25.433Z,88.64
2023-06-02T10:19:39.076Z,88.69
2023-06-02T10:22:49.781Z,84.67
2023-06-02T10:26:05.956Z,85.63
2023-06-02T10:29:09.753Z,85.54
2023-06-02T10:32:23.803Z,86.93
2023-06-02T10:35:46.440Z,85.62
2023-06-02T10:38:48.703Z,84.94
2023-06-02T10:42:08.007Z,82.71
2023-06-02T10:45:31.692Z,82.75
2023-06-02T10:48:39.584Z,80.14
2023-06-02T10:51:56.670Z,81.33
2023-06-02T10:55:19.795Z,79.95
2023-06-02T10:58:44.773Z,78.95
2023-06-02T11:01:48.937Z,76.62
2023-06-02T11:04:52.004Z,76.34
2023-06-02T11:08:11.151Z,77.93
2023-06-02T11:11:13.496Z,76.04
2023-06-02T11:14:18.045Z,76.63
2023-06-02T11:17:32.586Z,75.96
2023-06-02T11:20:38.687Z,76.21
2023-06-02T11:23:42.533Z,76.38
2023-06-02T11:26:47.882Z,74.30
2023-06-02T11:33:23.209Z,75.33
2023-06-02T11:36:27.289Z,76.06
2023-06-02T11:39:31.885Z,73.70
2023-06-02T11:42:47.310Z,73.96
2023-06-02T11:45:49.410Z,75.33
2023-06-02T11:48:56.596Z,72.71
2023-06-02T11:52:01.280Z,69.84
2023-06-02T11:55:11.912Z,70.91
2023-06-02T11:58:24.542Z,72.26
2023-06-02T12:01:31.925Z,72.83
2023-06-02T12:04:45.529Z,73.60
2023-06-02T12:07:52.451Z,73.58
2023-06-02T12:11:00.280Z,72.80
2023-06-02T12:14:04.072Z,71.03
2023-06-02T12:17:06.714Z,70.89
2023-06-02T12:20:13.478Z,70.06
2023-06-02T12:23:19.488Z,69.92
2023-06-02T12:26:25.527Z,70.69
2023-06-02T12:29:28.743Z,70.23
2023-06-02T12:32:31.444Z,70.43
2023-06-02T12:35:38.128Z,70.25
2023-06-02T12:38:41.673Z,72.87
2023-06-02T12:41:43.939Z,73.66
2023-06-02T12:44:47.803Z,73.07
2023-06-02T12:47:53.408Z,72.87
2023-06-02T12:50:57.292Z,72.88
2023-06-02T12:53:59.676Z,73.88
2023-06-02T12:57:01.719Z,72.25
2023-06-02T13:00:04.656Z,72.59
2023-06-02T13:03:07.352Z,70.34
2023-06-02T13:06:11.131Z,70.14
2023-06-02T13:09:13.625Z,69.77
2023-06-02T13:12:17.105Z,70.79
2023-06-02T13:15:19.020Z,70.17
2023-06-02T13:18:22.607Z,72.20
2023-06-02T13:21:26.488Z,70.15
2023-06-02T13:24:29.711Z,71.78
2023-06-02T13:27:42.237Z,70.64
2023-06-02T13:30:45.797Z,70.21
2023-06-02T13:33:48.966Z,71.02
2023-06-02T13:36:52.742Z,68.51
2023-06-02T13:39:57.182Z,67.62
2023-06-02T13:42:59.400Z,70.01
2023-06-02T13:46:01.539Z,68.40
2023-06-02T13:49:03.709Z,67.09
2023-06-02T13:52:09.115Z,66.87
2023-06-02T13:55:11.348Z,69.32
2023-06-02T13:58:13.608Z,69.59
2023-06-02T14:01:15.871Z,68.66
2023-06-02T14:04:17.799Z,67.98
2023-06-02T14:07:21.797Z,69.07
2023-06-02T14:10:24.211Z,69.08
2023-06-02T14:13:26.765Z,69.49
2023-06-02T14:16:28.766Z,70.97
2023-06-02T14:19:31.059Z,71.16
2023-06-02T14:22:37.480Z,71.04
2023-06-02T14:25:39.732Z,71.85
2023-06-02T14:28:45.259Z,71.90
2023-06-02T14:31:47.501Z,71.59
2023-06-02T14:34:49.843Z,71.27
2023-06-02T14:37:53.754Z,71.51
2023-06-02T14:40:55.834Z,71.37
2023-06-02T14:44:02.103Z,71.06
2023-06-02T14:47:07.359Z,70.38
2023-06-02T14:50:10.277Z,70.37
2023-06-02T14:53:16.100Z,71.49
2023-06-02T14:56:19.488Z,70.76
2023-06-02T14:59:24.281Z,71.62
2023-06-02T15:02:27.573Z,71.62
2023-06-02T15:05:29.734Z,70.90
2023-06-02T15:08:33.465Z,68.44
2023-06-02T15:11:35.963Z,67.56
2023-06-02T15:14:39.470Z,68.52
2023-06-02T15:17:41.874Z,69.37
2023-06-02T15:20:44.271Z,70.35
2023-06-02T15:23:48.220Z,70.51
2023-06-02T15:26:50.872Z,69.78
2023-06-02T15:29:53.187Z,70.20
2023-06-02T15:32:59.094Z,70.79
2023-06-02T15:36:01.285Z,71.22
2023-06-02T15:39:08.258Z,71.89
2023-06-02T15:42:10.480Z,71.21
2023-06-02T15:45:12.846Z,71.36
2023-06-02T15:48:15.231Z,71.52
2023-06-02T15:51:17.601Z,71.33
2023-06-02T15:54:21.553Z,72.19
2023-06-02T15:57:23.747Z,72.16
2023-06-02T16:00:27.426Z,72.20
2023-06-02T16:03:29.704Z,72.81
2023-06-02T16:06:34.551Z,72.81
2023-06-02T16:09:38.042Z,72.89
2023-06-02T16:12:40.284Z,73.85
2023-06-02T16:15:44.246Z,73.50
2023-06-02T16:18:48.496Z,73.69
2023-06-02T16:21:54.711Z,74.62
2023-06-02T16:25:02.505Z,74.45
2023-06-02T16:28:06.485Z,73.12
2023-06-02T16:31:09.002Z,72.34
2023-06-02T16:34:12.282Z,72.56
2023-06-02T16:37:16.859Z,72.01
2023-06-02T16:40:24.981Z,73.19
2023-06-02T16:43:28.346Z,72.34
2023-06-02T16:46:30.592Z,71.77
2023-06-02T16:49:35.959Z,72.12
2023-06-02T16:52:38.034Z,71.75
2023-06-02T16:55:41.566Z,71.78
2023-06-02T16:58:43.962Z,71.69
2023-06-02T17:01:47.166Z,72.82
2023-06-02T17:04:49.349Z,71.01
2023-06-02T17:07:54.599Z,70.60
2023-06-02T17:11:00.395Z,69.69
2023-06-02T17:14:05.814Z,70.98
2023-06-02T17:17:12.631Z,70.30
2023-06-02T17:20:15.355Z,71.05
2023-06-02T17:23:17.463Z,70.45
2023-06-02T17:26:21.087Z,70.68
2023-06-02T17:29:23.256Z,71.11
2023-06-02T17:32:25.976Z,71.89
2023-06-02T17:35:28.610Z,71.90
2023-06-02T17:38:33.477Z,72.12
2023-06-02T17:41:37.567Z,72.42
2023-06-02T17:44:45.073Z,71.67
2023-06-02T17:47:49.973Z,72.36
2023-06-02T17:50:52.489Z,72.33
2023-06-02T17:53:58.909Z,72.33
2023-06-02T17:57:05.593Z,72.19
2023-06-02T18:00:08.553Z,72.77
2023-06-02T18:03:13.057Z,72.71
2023-06-02T18:06:17.626Z,72.94
2023-06-02T18:09:21.015Z,72.94
2023-06-02T18:12:26.049Z,73.24
2023-06-02T18:15:30.179Z,73.65
2023-06-02T18:18:32.313Z,73.09
2023-06-02T18:21:35.068Z,72.59
2023-06-02T18:24:38.655Z,72.77
2023-06-02T18:27:43.078Z,73.19
2023-06-02T18:30:45.873Z,73.75
2023-06-02T18:33:47.944Z,73.70
2023-06-02T18:36:50.187Z,74.48
2023-06-02T18:39:52.267Z,74.84
2023-06-02T18:42:58.404Z,74.80
2023-06-02T18:46:03.915Z,75.59
2023-06-02T18:49:06.339Z,75.99
2023-06-02T18:52:09.684Z,75.62
2023-06-02T18:55:12.079Z,76.53
2023-06-02T18:58:15.670Z,76.66
2023-06-02T19:01:17.819Z,76.98
2023-06-02T19:04:19.934Z,77.50
2023-06-02T19:07:25.184Z,78.18
2023-06-02T19:10:27.346Z,79.15
2023-06-02T19:13:33.514Z,78.87
2023-06-02T19:16:38.240Z,79.39
2023-06-02T19:19:40.968Z,79.43
2023-06-02T19:22:43.553Z,79.34
2023-06-02T19:25:48.117Z,79.12
2023-06-02T19:28:56.929Z,79.04
2023-06-02T19:31:59.093Z,79.13
2023-06-02T19:35:03.033Z,79.05
2023-06-02T19:38:16.999Z,78.22
2023-06-02T19:41:19.217Z,77.89
2023-06-02T19:44:25.947Z,78.14
2023-06-02T19:47:29.807Z,77.80
2023-06-02T19:50:32.444Z,77.92
2023-06-02T19:53:34.836Z,77.59
2023-06-02T19:56:37.175Z,78.20
2023-06-02T19:59:40.840Z,78.04
2023-06-02T20:02:45.580Z,78.09
2023-06-02T20:05:51.812Z,78.10
2023-06-02T20:08:54.002Z,78.30
2023-06-02T20:12:00.123Z,78.30
2023-06-02T20:15:06.349Z,78.56
2023-06-02T20:18:09.474Z,79.15
2023-06-02T20:21:11.636Z,79.27
2023-06-02T20:24:13.990Z,78.73
2023-06-02T20:27:19.450Z,79.77
2023-06-02T20:30:25.636Z,80.03
2023-06-02T20:33:30.813Z,78.71
2023-06-02T20:36:32.949Z,78.55
2023-06-02T20:39:35.315Z,78.62
2023-06-02T20:42:37.919Z,78.06
2023-06-02T20:45:41.707Z,79.19
2023-06-02T20:48:47.057Z,80.28
2023-06-02T20:51:50.464Z,79.77
2023-06-02T20:54:53.707Z,78.98
2023-06-02T20:57:56.124Z,79.45
2023-06-02T21:01:00.045Z,80.02
2023-06-02T21:04:05.392Z,80.03
2023-06-02T21:07:07.596Z,80.40
2023-06-02T21:10:10.178Z,80.19
2023-06-02T21:13:16.166Z,79.27
2023-06-02T21:16:19.961Z,78.53
2023-06-02T21:19:22.360Z,76.81
2023-06-02T21:22:24.844Z,75.68
2023-06-02T21:25:27.322Z,74.88
2023-06-02T21:28:29.837Z,73.65
2023-06-02T21:31:33.419Z,72.72
2023-06-02T21:34:36.665Z,71.39
2023-06-02T21:37:40.658Z,71.85
2023-06-02T21:40:43.202Z,71.09
2023-06-02T21:43:45.410Z,70.95
2023-06-02T21:46:49.740Z,70.83
2023-06-02T21:49:51.848Z,69.82
2023-06-02T21:52:53.922Z,69.57
2023-06-02T21:55:55.961Z,68.91
2023-06-02T21:58:58.272Z,68.02
2023-06-02T22:02:02.045Z,67.92
2023-06-02T22:05:04.366Z,67.14
2023-06-02T22:08:06.857Z,66.76
2023-06-02T22:11:09.012Z,66.38
2023-06-02T22:14:11.293Z,66.38
2023-06-02T22:17:14.928Z,65.88
2023-06-02T22:20:18.211Z,65.45
2023-06-02T22:23:28.024Z,64.54
2023-06-02T22:26:30.008Z,64.06
2023-06-02T22:29:32.063Z,63.29
2023-06-02T22:32:35.746Z,63.27
2023-06-02T22:35:37.837Z,62.88
2023-06-02T22:38:42.716Z,62.59
2023-06-02T22:41:44.944Z,62.07
2023-06-02T22:44:47.275Z,61.96
2023-06-02T22:47:51.116Z,61.49
2023-06-02T22:50:54.181Z,60.79
2023-06-02T22:53:56.338Z,60.15
2023-06-02T22:57:01.786Z,59.60
2023-06-02T23:00:04.288Z,59.47
2023-06-02T23:03:07.763Z,59.28
2023-06-02T23:06:09.959Z,58.85
2023-06-02T23:09:12.253Z,58.74
2023-06-02T23:12:14.409Z,58.74
2023-06-02T23:15:18.181Z,58.67
2023-06-02T23:18:21.747Z,58.42
2023-06-02T23:21:23.905Z,58.32
2023-06-02T23:24:26.218Z,58.65
2023-06-02T23:27:28.633Z,58.02
2023-06-02T23:30:30.774Z,58.17
2023-06-02T23:33:37.341Z,57.90
2023-06-02T23:36:40.023Z,58.10
2023-06-02T23:39:42.031Z,58.12
2023-06-02T23:42:44.422Z,57.70
2023-06-02T23:45:48.127Z,58.23
2023-06-02T23:48:51.865Z,58.13
2023-06-02T23:51:54.134Z,57.80
2023-06-02T23:54:56.360Z,58.98
2023-06-02T23:57:58.466Z,59.03
